Terminal Aerodrome Forecast
Issued by NWS

Home | Current Version | Previous Version | Text Only | Print | Product List | Glossary On
Versions: 1 2 3 4 5 6 7 8 9 10 11 12 13 14 15
000
FTUS46 KPQR 240520
TAFONP
TAF
KONP 240520Z 2406/2506 16012KT 4SM RA BR SCT015 OVC025
      TEMPO 2406/2408 18020G30KT 4SM RA BR SCT009 OVC015
     FM240800 19015G25KT P6SM -SHRA BKN018 BKN030
     FM241200 20012KT P6SM -SHRA SCT020 BKN030
     FM241800 22014G20KT P6SM -SHRA SCT020 BKN035
     FM250200 22008KT P6SM -SHRA SCT020 BKN035=

USA.gov is the U.S. government's official web portal to all federal, state and local government web resources and services.